York, PA (17403)

7:09 PM EDT on July 28, 2016 (GMT -0400)
Penn State York | | Change Station
Active Advisory: Areal Flood Watch Active Notice: Local Storm Report

Elev 509 ft 39.95 °N, 76.70 °W | Updated 6 seconds ago

Mostly Cloudy
Mostly Cloudy
75.0 °F
Feels Like 73 °F
N
2.0
Wind Variable Wind from NE
Gusts 5.0 mph

Today
High -- | Low -- °F
--% Chance of Precip.
Yesterday
High -- | Low -- °F
Precip. -- in
Pressure 29.88 in
Visibility 10.0 miles
Clouds Mostly Cloudy 8000 ft
Heat Index 73 °F
Dew Point 74 °F
Humidity 98%
Rainfall 0.07 in
Snow Depth Not available.
6:02 AM 8:23 PM
Waning Crescent, 28% visible
METAR KTHV 282253Z AUTO 08005KT 10SM BKN080 26/21 A2989 RMK AO2 SLP118 T02560206
Pressure 29.88 in
Visibility 10.0 miles
Clouds Mostly Cloudy 8000 ft
Heat Index 73 °F
Dew Point 74 °F
Humidity 98%
Rainfall 0.07 in
Snow Depth Not available.
6:02 AM 8:23 PM
Waning Crescent, 28% visible
METAR KTHV 282253Z AUTO 08005KT 10SM BKN080 26/21 A2989 RMK AO2 SLP118 T02560206

10-Day Weather Forecast

Almanac

Astronomy

Jul. 28, 2016 Rise Set
Actual Time
Civil Twilight
Nautical Twilight
Astronomical Twilight
Moon
Length of Visible Light
Length of Day
Tomorrow will be .
, % of the Moon is Illuminated

Today's Extremes

State Highs State Lows

Community

WunderPhotos

Upload Photos

1,928,226 photos uploaded!

WunderBlog® & News

Nearby

Air Quality

  Air Quality AQ Index Pollutant
Not available.

Snow Depth

Station Depth Elevation

Earthquake Activity

City Distance Mag. Time & Date
Minimum magnitude displayed is 2.5.

Coastal Water Temperatures

Place Temperature

Stations

Nearby Weather Stations

Station Location Temp. Windchill Dew Point Humidity Wind Precip. Elev Updated Type
                   

Watches & Warnings

Areal Flood Watch
Issued: 1:27 PM EDT Jul. 28, 2016 – National Weather Service

... Flood Watch in effect through Friday morning...

The National Weather Service in State College has issued a

* Flood Watch for a portion of central Pennsylvania... including
the following areas... Adams... Cumberland... Dauphin...
Franklin... Lancaster... Lebanon... Perry and York.

* Through Friday morning

* slow moving showers and thunderstorms will develop this
afternoon and continue overnight. Some of the showers will
contain torrential downpours which could lead to flash flooding.

* The potential for rainfall amounts of over three inches in a few
hours is possible... especially in urban areas.

Precautionary/preparedness actions...

Review flood safety and preparedness information at
tadd.Weather.Gov.



CR